createdAt,value
2023-04-03T00:01:14.078Z,2.30
2023-04-03T00:04:17.152Z,2.50
2023-04-03T00:07:19.756Z,2.40
2023-04-03T00:10:22.901Z,2.30
2023-04-03T00:13:26.191Z,2.70
2023-04-03T00:16:29.333Z,2.60
2023-04-03T00:19:32.074Z,2.50
2023-04-03T00:22:35.006Z,2.42
2023-04-03T00:25:38.002Z,2.80
2023-04-03T00:28:41.266Z,2.55
2023-04-03T00:31:44.000Z,2.70
2023-04-03T00:34:46.963Z,3.35
2023-04-03T00:37:53.131Z,2.40
2023-04-03T00:40:56.062Z,2.50
2023-04-03T00:44:01.971Z,2.60
2023-04-03T00:47:08.054Z,2.50
2023-04-03T00:50:10.768Z,2.50
2023-04-03T00:53:23.966Z,2.50
2023-04-03T00:56:29.261Z,2.50
2023-04-03T00:59:37.357Z,2.60
2023-04-03T01:02:41.948Z,2.70
2023-04-03T01:05:45.554Z,2.50
2023-04-03T01:08:51.041Z,2.50
2023-04-03T01:11:54.630Z,2.42
2023-04-03T01:15:10.329Z,2.50
2023-04-03T01:18:13.255Z,2.63
2023-04-03T01:21:49.074Z,2.50
2023-04-03T01:24:54.266Z,3.05
2023-04-03T01:27:57.123Z,2.50
2023-04-03T01:31:25.982Z,4.30
2023-04-03T01:34:30.928Z,2.50
2023-04-03T01:37:34.651Z,2.60
2023-04-03T01:40:37.634Z,4.35
2023-04-03T01:43:41.654Z,2.40
2023-04-03T01:46:44.202Z,2.45
2023-04-03T01:49:47.375Z,2.60
2023-04-03T01:52:50.422Z,2.40
2023-04-03T01:55:53.403Z,2.40
2023-04-03T01:58:56.497Z,2.53
2023-04-03T02:02:02.369Z,3.05
2023-04-03T02:05:05.814Z,2.50
2023-04-03T02:08:08.446Z,2.50
2023-04-03T02:11:11.334Z,2.60
2023-04-03T02:14:14.054Z,2.50
2023-04-03T02:17:17.401Z,2.50
2023-04-03T02:20:20.707Z,2.50
2023-04-03T02:23:23.264Z,2.50
2023-04-03T02:26:27.234Z,2.67
2023-04-03T02:29:29.965Z,2.50
2023-04-03T02:32:33.500Z,2.70
2023-04-03T02:35:38.353Z,2.70
2023-04-03T02:38:41.823Z,2.42
2023-04-03T02:41:45.594Z,3.08
2023-04-03T02:44:49.223Z,2.50
2023-04-03T02:47:52.213Z,2.50
2023-04-03T02:50:55.737Z,2.53
2023-04-03T02:53:58.452Z,8.73
2023-04-03T02:57:01.821Z,2.50
2023-04-03T03:00:04.932Z,2.50
2023-04-03T03:03:08.263Z,2.50
2023-04-03T03:06:14.407Z,2.53
2023-04-03T03:09:18.589Z,2.40
2023-04-03T03:12:22.800Z,2.90
2023-04-03T03:15:26.064Z,2.50
2023-04-03T03:18:29.372Z,2.70
2023-04-03T03:21:32.250Z,2.60
2023-04-03T03:24:35.365Z,2.55
2023-04-03T03:27:38.341Z,2.60
2023-04-03T03:30:41.327Z,2.60
2023-04-03T03:33:44.208Z,2.60
2023-04-03T03:36:46.812Z,2.20
2023-04-03T03:39:50.136Z,2.50
2023-04-03T03:42:53.021Z,2.40
2023-04-03T03:45:56.686Z,2.55
2023-04-03T03:49:00.569Z,2.50
2023-04-03T03:52:03.853Z,2.60
2023-04-03T03:55:06.954Z,4.20
2023-04-03T03:58:10.794Z,2.65
2023-04-03T04:01:13.954Z,2.40
2023-04-03T04:04:17.303Z,2.50
2023-04-03T04:07:20.529Z,2.47
2023-04-03T04:10:24.290Z,2.58
2023-04-03T04:13:27.536Z,2.50
2023-04-03T04:16:30.591Z,2.40
2023-04-03T04:19:34.489Z,2.50
2023-04-03T04:22:38.964Z,2.60
2023-04-03T04:25:42.223Z,2.60
2023-04-03T04:28:45.757Z,2.50
2023-04-03T04:31:49.001Z,2.50
2023-04-03T04:34:53.241Z,2.70
2023-04-03T04:37:56.644Z,2.60
2023-04-03T04:41:03.360Z,2.40
2023-04-03T04:44:08.644Z,2.50
2023-04-03T04:47:12.078Z,2.75
2023-04-03T04:50:15.989Z,2.50
2023-04-03T04:53:18.977Z,2.50
2023-04-03T04:56:22.004Z,3.75
2023-04-03T04:59:25.462Z,2.55
2023-04-03T05:02:28.997Z,2.50
2023-04-03T05:05:32.300Z,2.50
2023-04-03T05:08:35.202Z,2.60
2023-04-03T05:11:39.173Z,4.55
2023-04-03T05:14:42.754Z,2.40
2023-04-03T05:17:47.127Z,2.40
2023-04-03T05:20:51.656Z,2.50
2023-04-03T05:23:55.776Z,2.50
2023-04-03T05:26:58.893Z,2.40
2023-04-03T05:30:03.863Z,2.60
2023-04-03T05:33:07.342Z,4.35
2023-04-03T05:36:11.641Z,2.58
2023-04-03T05:39:15.675Z,2.47
2023-04-03T05:42:19.417Z,2.50
2023-04-03T05:45:22.371Z,2.97
2023-04-03T05:48:26.560Z,2.33
2023-04-03T05:51:34.445Z,2.58
2023-04-03T05:54:38.103Z,2.53
2023-04-03T05:57:41.805Z,2.50
2023-04-03T06:00:45.208Z,2.60
2023-04-03T06:03:48.696Z,6.62
2023-04-03T06:06:54.671Z,2.50
2023-04-03T06:09:58.315Z,3.70
2023-04-03T06:13:01.152Z,2.42
2023-04-03T06:16:06.653Z,2.40
2023-04-03T06:19:10.243Z,2.42
2023-04-03T06:22:15.595Z,448.35
2023-04-03T06:25:19.852Z,297.13
2023-04-03T06:28:23.063Z,259.87
2023-04-03T06:31:25.933Z,108.65
2023-04-03T06:34:29.187Z,7.05
2023-04-03T06:37:33.825Z,7.90
2023-04-03T06:40:37.553Z,7.50
2023-04-03T06:43:40.480Z,5.87
2023-04-03T06:46:44.934Z,3.12
2023-04-03T06:49:47.885Z,4.55
2023-04-03T06:52:50.775Z,2.65
2023-04-03T06:55:53.367Z,2.50
2023-04-03T06:58:58.574Z,4.15
2023-04-03T07:02:01.634Z,2.70
2023-04-03T07:05:04.890Z,3.47
2023-04-03T07:08:08.280Z,4.00
2023-04-03T07:11:12.351Z,4.23
2023-04-03T07:14:15.377Z,3.65
2023-04-03T07:17:18.569Z,10.77
2023-04-03T07:20:21.449Z,2.72
2023-04-03T07:23:25.485Z,3.47
2023-04-03T07:26:28.313Z,6.00
2023-04-03T07:29:31.207Z,8.13
2023-04-03T07:32:33.968Z,3.67
2023-04-03T07:35:37.346Z,3.47
2023-04-03T07:38:40.781Z,3.28
2023-04-03T07:41:43.791Z,2.80
2023-04-03T07:44:46.687Z,3.50
2023-04-03T07:47:49.859Z,4.85
2023-04-03T07:50:53.125Z,4.00
2023-04-03T07:53:56.023Z,4.47
2023-04-03T07:56:58.826Z,4.00
2023-04-03T08:00:06.700Z,4.25
2023-04-03T08:03:17.657Z,2.72
2023-04-03T08:06:29.316Z,3.08
2023-04-03T08:09:32.652Z,2.83
2023-04-03T08:12:35.835Z,2.93
2023-04-03T08:15:38.551Z,6.10
2023-04-03T08:18:41.876Z,2.78
2023-04-03T08:21:46.594Z,4.03
2023-04-03T08:24:58.593Z,3.90
2023-04-03T08:28:03.756Z,2.87
2023-04-03T08:31:09.256Z,3.15
2023-04-03T08:34:12.784Z,2.78
2023-04-03T08:37:17.326Z,2.62
2023-04-03T08:40:20.520Z,3.20
2023-04-03T08:43:47.438Z,2.50
2023-04-03T08:47:21.767Z,2.50
2023-04-03T08:50:33.083Z,4.10
2023-04-03T08:53:40.982Z,4.15
2023-04-03T08:56:44.328Z,2.65
2023-04-03T08:59:47.317Z,3.37
2023-04-03T09:02:56.317Z,2.47
2023-04-03T09:06:11.913Z,3.90
2023-04-03T09:09:28.601Z,2.60
2023-04-03T09:12:58.435Z,3.28
2023-04-03T09:16:05.390Z,4.10
2023-04-03T09:19:26.757Z,4.68
2023-04-03T09:22:36.513Z,2.92
2023-04-03T09:25:42.688Z,2.60
2023-04-03T09:28:50.460Z,2.40
2023-04-03T09:32:16.295Z,3.83
2023-04-03T09:35:27.443Z,3.85
2023-04-03T09:38:38.978Z,4.47
2023-04-03T09:41:43.061Z,2.90
2023-04-03T09:44:58.564Z,2.58
2023-04-03T09:48:16.097Z,2.80
2023-04-03T09:51:19.412Z,3.50
2023-04-03T09:54:35.513Z,2.42
2023-04-03T09:57:38.229Z,3.08
2023-04-03T10:00:41.729Z,2.40
2023-04-03T10:03:47.721Z,2.67
2023-04-03T10:06:52.970Z,2.70
2023-04-03T10:10:17.944Z,3.05
2023-04-03T10:13:25.606Z,3.70
2023-04-03T10:16:38.672Z,2.92
2023-04-03T10:20:08.647Z,2.57
2023-04-03T10:23:32.672Z,2.50
2023-04-03T10:26:50.796Z,3.75
2023-04-03T10:30:01.088Z,18.83
2023-04-03T10:33:17.550Z,2.30
2023-04-03T10:36:30.493Z,3.83
2023-04-03T10:40:02.253Z,2.20
2023-04-03T10:43:11.095Z,2.30
2023-04-03T10:46:13.704Z,2.40
2023-04-03T10:49:32.315Z,2.30
2023-04-03T10:52:50.170Z,2.30
2023-04-03T10:56:12.394Z,3.15
2023-04-03T10:59:55.250Z,4.25
2023-04-03T11:03:07.041Z,2.30
2023-04-03T11:06:17.045Z,3.30
2023-04-03T11:09:34.371Z,3.53
2023-04-03T11:12:49.575Z,2.65
2023-04-03T11:15:54.968Z,2.95
2023-04-03T11:19:13.378Z,2.83
2023-04-03T11:22:25.076Z,3.30
2023-04-03T11:25:31.982Z,4.77
2023-04-03T11:28:38.180Z,3.70
2023-04-03T11:32:10.333Z,3.92
2023-04-03T11:35:14.525Z,3.87
2023-04-03T11:38:41.832Z,2.40
2023-04-03T11:41:45.096Z,2.53
2023-04-03T11:44:48.072Z,3.97
2023-04-03T11:47:53.928Z,2.95
2023-04-03T11:50:57.782Z,2.92
2023-04-03T11:54:50.342Z,2.50
2023-04-03T11:57:59.020Z,2.40
2023-04-03T12:01:08.559Z,4.50
2023-04-03T12:04:16.008Z,3.35
2023-04-03T12:07:38.876Z,2.50
2023-04-03T12:10:42.216Z,3.58
2023-04-03T12:13:53.627Z,2.40
2023-04-03T12:16:59.121Z,2.47
2023-04-03T12:20:01.809Z,2.50
2023-04-03T12:23:34.387Z,2.87
2023-04-03T12:26:52.788Z,3.37
2023-04-03T12:30:02.914Z,4.73
2023-04-03T12:33:20.367Z,2.60
2023-04-03T12:37:03.153Z,5.25
2023-04-03T12:40:22.254Z,2.45
2023-04-03T12:43:40.612Z,2.40
2023-04-03T12:46:46.704Z,2.30
2023-04-03T12:49:53.987Z,10.40
2023-04-03T12:53:05.253Z,2.53
2023-04-03T12:56:31.402Z,3.65
2023-04-03T12:59:36.596Z,3.03
2023-04-03T13:02:39.834Z,2.23
2023-04-03T13:05:45.920Z,2.33
2023-04-03T13:08:54.280Z,3.62
2023-04-03T13:12:11.715Z,2.65
2023-04-03T13:15:26.045Z,2.40
2023-04-03T13:18:34.755Z,3.47
2023-04-03T13:21:37.831Z,2.30
2023-04-03T13:24:40.926Z,2.53
2023-04-03T13:27:45.266Z,2.60
2023-04-03T13:31:11.308Z,2.40
2023-04-03T13:34:19.836Z,2.83
2023-04-03T13:37:31.129Z,2.20
2023-04-03T13:40:47.064Z,2.20
2023-04-03T13:43:53.631Z,2.75
2023-04-03T13:47:12.810Z,2.60
2023-04-03T13:50:30.108Z,4.50
2023-04-03T13:53:35.411Z,2.50
2023-04-03T13:56:40.317Z,2.50
2023-04-03T13:59:44.488Z,2.85
2023-04-03T14:02:49.177Z,2.45
2023-04-03T14:05:52.376Z,3.67
2023-04-03T14:08:55.536Z,2.20
2023-04-03T14:12:07.755Z,3.22
2023-04-03T14:15:25.631Z,2.90
2023-04-03T14:18:28.783Z,3.83
2023-04-03T14:21:31.546Z,2.20
2023-04-03T14:24:35.754Z,3.05
2023-04-03T14:27:45.022Z,3.97
2023-04-03T14:30:50.982Z,3.03
2023-04-03T14:33:53.724Z,2.50
2023-04-03T14:36:56.854Z,2.70
2023-04-03T14:40:02.131Z,2.55
2023-04-03T14:43:07.323Z,2.70
2023-04-03T14:46:19.000Z,3.85
2023-04-03T14:49:25.822Z,2.40
2023-04-03T14:52:31.827Z,2.77
2023-04-03T14:55:36.244Z,2.40
2023-04-03T14:58:39.087Z,2.35
2023-04-03T15:01:43.129Z,2.50
2023-04-03T15:04:46.228Z,2.67
2023-04-03T15:07:53.697Z,2.87
2023-04-03T15:10:57.209Z,2.12
2023-04-03T15:14:00.051Z,2.72
2023-04-03T15:17:04.430Z,2.85
2023-04-03T15:20:15.436Z,2.80
2023-04-03T15:23:18.322Z,2.93
2023-04-03T15:26:21.778Z,3.83
2023-04-03T15:29:34.793Z,5.85
2023-04-03T15:32:51.570Z,4.87
2023-04-03T15:36:06.637Z,5.68
2023-04-03T15:39:38.832Z,2.70
2023-04-03T15:43:05.240Z,4.80
2023-04-03T15:46:09.181Z,4.12
2023-04-03T15:49:12.731Z,3.45
2023-04-03T15:52:15.733Z,4.15
2023-04-03T15:55:18.420Z,3.27
2023-04-03T15:58:21.926Z,5.72
2023-04-03T16:01:25.022Z,3.95
2023-04-03T16:04:28.548Z,3.78
2023-04-03T16:07:31.785Z,3.05
2023-04-03T16:10:37.031Z,3.40
2023-04-03T16:13:43.403Z,4.03
2023-04-03T16:16:46.529Z,2.65
2023-04-03T16:19:49.526Z,2.83
2023-04-03T16:22:57.369Z,3.30
2023-04-03T16:26:04.866Z,5.65
2023-04-03T16:29:07.881Z,2.67
2023-04-03T16:32:39.809Z,4.55
2023-04-03T16:35:44.127Z,4.15
2023-04-03T16:38:46.965Z,4.43
2023-04-03T16:41:50.111Z,4.68
2023-04-03T16:44:53.023Z,2.40
2023-04-03T16:47:56.828Z,3.50
2023-04-03T16:51:05.972Z,4.35
2023-04-03T16:54:11.449Z,3.70
2023-04-03T16:57:14.348Z,3.65
2023-04-03T17:00:17.981Z,3.05
2023-04-03T17:03:20.767Z,5.60
2023-04-03T17:06:48.929Z,2.42
2023-04-03T17:10:02.601Z,3.27
2023-04-03T17:13:11.790Z,3.55
2023-04-03T17:16:17.457Z,2.90
2023-04-03T17:19:20.912Z,2.75
2023-04-03T17:22:24.309Z,3.80
2023-04-03T17:25:27.339Z,2.60
2023-04-03T17:28:30.448Z,3.30
2023-04-03T17:31:34.213Z,3.28
2023-04-03T17:34:37.222Z,3.92
2023-04-03T17:37:40.614Z,35.78
2023-04-03T17:40:45.541Z,2.50
2023-04-03T17:43:48.907Z,2.50
2023-04-03T17:46:51.536Z,2.50
2023-04-03T17:49:54.824Z,3.25
2023-04-03T17:52:57.629Z,2.70
2023-04-03T17:56:23.537Z,3.03
2023-04-03T17:59:28.330Z,3.78
2023-04-03T18:02:32.499Z,3.67
2023-04-03T18:05:38.097Z,3.53
2023-04-03T18:08:55.047Z,2.72
2023-04-03T18:12:02.669Z,2.80
2023-04-03T18:15:06.672Z,2.58
2023-04-03T18:18:10.368Z,3.78
2023-04-03T18:21:18.102Z,2.72
2023-04-03T18:24:23.456Z,3.25
2023-04-03T18:27:29.281Z,4.40
2023-04-03T18:30:34.615Z,4.80
2023-04-03T18:33:40.620Z,2.60
2023-04-03T18:36:48.334Z,2.83
2023-04-03T18:39:52.438Z,3.08
2023-04-03T18:42:57.244Z,2.60
2023-04-03T18:46:02.708Z,2.90
2023-04-03T18:49:08.876Z,2.50
2023-04-03T18:52:13.081Z,3.20
2023-04-03T18:55:20.282Z,2.70
2023-04-03T18:58:23.499Z,2.70
2023-04-03T19:01:28.573Z,3.50
2023-04-03T19:04:31.751Z,2.70
2023-04-03T19:07:34.881Z,5.35
2023-04-03T19:10:42.978Z,4.55
2023-04-03T19:16:56.559Z,4.55
2023-04-03T19:20:00.160Z,4.65
2023-04-03T19:23:03.530Z,2.90
2023-04-03T19:26:08.612Z,7.10
2023-04-03T19:29:12.778Z,2.50
2023-04-03T19:32:16.345Z,2.70
2023-04-03T19:35:19.432Z,2.92
2023-04-03T19:38:22.807Z,3.45
2023-04-03T19:41:45.698Z,2.65
2023-04-03T19:44:49.487Z,2.57
2023-04-03T19:47:55.158Z,3.83
2023-04-03T19:50:59.111Z,4.68
2023-04-03T19:54:02.088Z,3.58
2023-04-03T19:57:07.434Z,3.78
2023-04-03T20:00:14.451Z,3.93
2023-04-03T20:03:18.386Z,2.60
2023-04-03T20:06:21.890Z,2.60
2023-04-03T20:09:27.434Z,4.15
2023-04-03T20:12:30.518Z,3.78
2023-04-03T20:15:40.781Z,4.70
2023-04-03T20:18:43.954Z,2.70
2023-04-03T20:21:48.067Z,2.70
2023-04-03T20:24:52.011Z,2.60
2023-04-03T20:27:54.994Z,2.70
2023-04-03T20:30:58.910Z,2.93
2023-04-03T20:34:02.131Z,2.87
2023-04-03T20:37:06.161Z,2.70
2023-04-03T20:40:09.793Z,2.50
2023-04-03T20:43:13.078Z,2.60
2023-04-03T20:46:19.725Z,2.80
2023-04-03T20:49:23.230Z,3.17
2023-04-03T20:52:26.559Z,3.25
2023-04-03T20:55:30.190Z,5.23
2023-04-03T20:58:36.671Z,2.60
2023-04-03T21:01:39.846Z,2.62
2023-04-03T21:04:49.911Z,2.80
2023-04-03T21:08:30.086Z,2.60
2023-04-03T21:12:10.959Z,2.80
2023-04-03T21:15:49.006Z,2.50
2023-04-03T21:18:55.160Z,2.60
2023-04-03T21:22:01.034Z,2.70
2023-04-03T21:25:04.158Z,3.35
2023-04-03T21:28:07.219Z,3.47
2023-04-03T21:31:11.841Z,3.15
2023-04-03T21:34:15.638Z,2.65
2023-04-03T21:37:19.108Z,2.50
2023-04-03T21:40:22.023Z,2.80
2023-04-03T21:43:25.388Z,2.60
2023-04-03T21:46:28.242Z,2.50
2023-04-03T21:49:31.302Z,2.60
2023-04-03T21:52:34.117Z,2.60
2023-04-03T21:55:37.434Z,4.25
2023-04-03T21:58:40.206Z,2.60
2023-04-03T22:01:43.860Z,3.10
2023-04-03T22:04:50.134Z,4.28
2023-04-03T22:07:52.921Z,2.97
2023-04-03T22:11:09.523Z,5.25
2023-04-03T22:14:12.291Z,10.70
2023-04-03T22:17:15.410Z,2.53
2023-04-03T22:20:18.308Z,2.62
2023-04-03T22:23:22.150Z,4.32
2023-04-03T22:26:24.784Z,2.58
2023-04-03T22:29:28.018Z,3.77
2023-04-03T22:32:32.600Z,2.90
2023-04-03T22:35:35.550Z,3.28
2023-04-03T22:38:39.178Z,2.60
2023-04-03T22:41:45.356Z,2.50
2023-04-03T22:44:48.282Z,2.60
2023-04-03T22:47:51.187Z,2.60
2023-04-03T22:50:54.958Z,2.92
2023-04-03T22:53:58.042Z,2.67
2023-04-03T22:57:00.662Z,3.25
2023-04-03T23:00:04.011Z,4.30
2023-04-03T23:03:09.496Z,2.65
2023-04-03T23:06:13.497Z,3.58
2023-04-03T23:09:16.463Z,2.87
2023-04-03T23:12:21.135Z,3.15
2023-04-03T23:15:23.879Z,2.60
2023-04-03T23:18:31.423Z,2.70
2023-04-03T23:21:34.208Z,3.20
2023-04-03T23:24:38.837Z,2.70
2023-04-03T23:27:41.483Z,3.75
2023-04-03T23:30:46.076Z,2.73
2023-04-03T23:33:48.823Z,2.90
2023-04-03T23:36:51.934Z,2.60
2023-04-03T23:39:54.550Z,2.53
2023-04-03T23:42:57.706Z,2.70
2023-04-03T23:46:00.370Z,2.93
2023-04-03T23:49:03.230Z,2.70
2023-04-03T23:52:06.223Z,3.97
2023-04-03T23:55:09.617Z,5.85
2023-04-03T23:58:12.420Z,3.75
